Terminal Aerodrome Forecast
Issued by NWS

Home | Current Version | Previous Version | Text Only | Print | Product List | Glossary On
Versions: 1 2 3 4 5 6 7 8 9 10 11 12 13 14 15 16 17
000
FTUS46 KEKA 191733
TAFUKI
TAF
KUKI 191733Z 1918/2018 33012KT P6SM FEW050 SCT120 SCT250
      TEMPO 1920/1924 32012G18KT BKN120
     FM200300 32006KT P6SM SCT050 OVC100
     FM200600 35008KT P6SM VCSH SCT025 BKN050
     FM201000 36003KT 6SM -RA BR FEW015 OVC020=

USA.gov is the U.S. government's official web portal to all federal, state and local government web resources and services.